Time;durP1;ratioP1;P1;durP2;ratioP2;P2;SDS_P1;SDS_P2;PMS_P1;PMS_P2;Temp;Humidity;BMP_temperature;BMP_pressure;BME280_temperature;BME280_humidity;BME280_pressure;Samples;Min_cycle;Max_cycle;Signal;HPM_P1;HPM_P2
2022/10/10 00:02:15;;;;;;;6.43;3.05;;;18.60;73.90;;;;;;6335998;22;20010;-79
2022/10/10 00:04:41;;;;;;;4.93;3.00;;;18.60;73.50;;;;;;6336846;22;20048;-79
2022/10/10 00:07:06;;;;;;;6.10;2.70;;;18.60;73.80;;;;;;6336804;22;20003;-79
2022/10/10 00:09:32;;;;;;;7.57;3.03;;;18.60;73.80;;;;;;6337726;22;20003;-79
2022/10/10 00:11:58;;;;;;;5.85;2.63;;;18.60;73.80;;;;;;6336931;22;20428;-79
2022/10/10 00:14:23;;;;;;;6.57;2.65;;;18.60;73.70;;;;;;6338256;22;20002;-79
2022/10/10 00:16:49;;;;;;;5.20;2.60;;;18.70;74.10;;;;;;6339316;22;20368;-79
2022/10/10 00:19:15;;;;;;;4.85;2.50;;;18.70;73.90;;;;;;6340144;22;20003;-80
2022/10/10 00:21:41;;;;;;;4.40;2.60;;;18.70;73.30;;;;;;6338049;22;20002;-80
2022/10/10 00:24:07;;;;;;;6.40;2.50;;;18.70;72.80;;;;;;6339111;22;20003;-78
2022/10/10 00:26:33;;;;;;;5.60;2.65;;;18.80;73.40;;;;;;6311776;22;20010;-80
2022/10/10 00:28:58;;;;;;;4.85;2.67;;;18.70;73.20;;;;;;6339696;22;20409;-80
2022/10/10 00:31:24;;;;;;;5.95;2.90;;;18.70;73.60;;;;;;6338959;22;20302;-81
2022/10/10 00:33:50;;;;;;;6.40;2.45;;;18.70;73.30;;;;;;6338536;22;20019;-78
2022/10/10 00:36:16;;;;;;;6.53;2.65;;;18.70;73.20;;;;;;6339034;22;20317;-79
2022/10/10 00:38:41;;;;;;;5.55;2.55;;;18.70;72.80;;;;;;6340370;22;20306;-78
2022/10/10 00:41:07;;;;;;;3.35;2.78;;;18.70;73.10;;;;;;6339008;22;20029;-78
2022/10/10 00:43:33;;;;;;;5.82;2.28;;;18.70;73.20;;;;;;6339106;22;19999;-79
2022/10/10 00:45:59;;;;;;;5.93;2.65;;;18.60;73.50;;;;;;6338923;22;20059;-78
2022/10/10 00:48:35;;;;;;;6.38;2.72;;;18.60;73.30;;;;;;6339504;22;20401;-79
2022/10/10 00:51:19;;;;;;;6.07;2.72;;;18.50;73.40;;;;;;6339021;22;20299;-79
2022/10/10 00:54:01;;;;;;;5.90;2.92;;;18.50;72.60;;;;;;6339442;22;20417;-78
2022/10/10 00:56:31;;;;;;;5.65;2.83;;;18.50;73.60;;;;;;6338937;22;20018;-80
2022/10/10 00:59:02;;;;;;;6.75;3.08;;;18.50;73.60;;;;;;6339984;22;19999;-82
2022/10/10 01:01:27;;;;;;;4.10;2.63;;;18.40;74.00;;;;;;6338685;22;19999;-79
2022/10/10 01:03:57;;;;;;;6.30;2.45;;;18.30;74.20;;;;;;6339656;22;20364;-81
2022/10/10 01:06:23;;;;;;;9.50;3.00;;;18.30;74.10;;;;;;6338899;22;19998;-80
2022/10/10 01:08:49;;;;;;;8.18;2.50;;;18.30;74.50;;;;;;6339483;22;20032;-79
2022/10/10 01:11:55;;;;;;;3.67;2.45;;;18.40;74.90;;;;;;6338934;22;19999;-80
2022/10/10 01:14:39;;;;;;;3.60;2.33;;;18.40;74.30;;;;;;6325242;22;20144;-80
2022/10/10 01:17:25;;;;;;;7.80;2.67;;;18.30;73.80;;;;;;6338862;22;20437;-81
2022/10/10 01:20:22;;;;;;;6.90;2.58;;;18.20;74.60;;;;;;6338957;22;19999;-82
2022/10/10 01:23:09;;;;;;;5.88;2.42;;;18.20;74.70;;;;;;6315506;22;20003;-82
2022/10/10 01:25:37;;;;;;;7.20;2.38;;;18.20;74.40;;;;;;6311091;22;20305;-81
2022/10/10 01:28:09;;;;;;;4.90;2.72;;;18.20;74.50;;;;;;6338896;22;20018;-79
2022/10/10 01:30:35;;;;;;;6.70;2.72;;;18.20;74.70;;;;;;6339049;22;19999;-80
2022/10/10 01:33:09;;;;;;;4.85;2.58;;;18.20;74.70;;;;;;6338747;22;20406;-81
2022/10/10 01:35:56;;;;;;;4.18;2.63;;;18.20;74.80;;;;;;6339161;22;19995;-80
2022/10/10 01:38:40;;;;;;;7.00;2.60;;;18.30;74.50;;;;;;6338273;22;20003;-81
2022/10/10 01:41:24;;;;;;;13.63;3.53;;;18.30;74.80;;;;;;6337751;22;20010;-80
2022/10/10 01:43:55;;;;;;;4.25;2.65;;;18.20;74.50;;;;;;6338935;22;20400;-79
2022/10/10 01:46:20;;;;;;;5.32;2.30;;;18.30;74.60;;;;;;6338724;22;19999;-79
2022/10/10 01:48:49;;;;;;;4.93;1.95;;;18.30;75.00;;;;;;6338630;22;20082;-80
2022/10/10 01:51:23;;;;;;;5.07;2.47;;;18.20;75.20;;;;;;6338754;22;20030;-81
2022/10/10 01:53:58;;;;;;;5.28;2.47;;;18.20;74.80;;;;;;6338950;22;19999;-82
2022/10/10 01:56:38;;;;;;;6.15;2.50;;;18.20;74.80;;;;;;6338678;22;20007;-82
2022/10/10 01:59:25;;;;;;;5.00;2.55;;;18.20;74.60;;;;;;6338459;22;20321;-82
2022/10/10 02:01:56;;;;;;;5.97;2.55;;;18.30;74.50;;;;;;6338615;22;20007;-81
2022/10/10 02:04:30;;;;;;;7.65;2.70;;;18.30;74.80;;;;;;6338697;22;20059;-80
2022/10/10 02:07:20;;;;;;;8.55;3.00;;;18.10;74.10;;;;;;6339045;22;20047;-81
2022/10/10 02:09:46;;;;;;;6.00;2.72;;;18.20;74.60;;;;;;6338741;22;19995;-81
2022/10/10 02:12:13;;;;;;;4.53;2.08;;;18.10;74.90;;;;;;6338776;22;20421;-81
2022/10/10 02:14:46;;;;;;;3.42;2.25;;;18.10;75.00;;;;;;6338496;22;20462;-81
2022/10/10 02:17:14;;;;;;;6.50;2.17;;;18.10;74.90;;;;;;6338742;22;19999;-80
2022/10/10 02:19:52;;;;;;;3.35;2.30;;;18.20;75.10;;;;;;6338320;22;20030;-79
2022/10/10 02:22:21;;;;;;;6.38;2.50;;;18.20;74.70;;;;;;6337454;22;19998;-80
2022/10/10 02:24:47;;;;;;;4.65;2.20;;;18.30;74.70;;;;;;6338227;22;20029;-79
2022/10/10 02:27:29;;;;;;;4.97;1.90;;;18.30;74.50;;;;;;6337359;22;20026;-80
2022/10/10 02:29:58;;;;;;;8.73;2.50;;;18.30;74.00;;;;;;6338001;22;20005;-80
2022/10/10 02:32:31;;;;;;;5.47;2.33;;;18.30;73.80;;;;;;6337724;22;20074;-81
2022/10/10 02:35:03;;;;;;;5.65;2.33;;;18.40;75.10;;;;;;6338100;22;20056;-80
2022/10/10 02:37:30;;;;;;;3.88;1.92;;;18.30;74.70;;;;;;6337657;22;20534;-80
2022/10/10 02:40:00;;;;;;;6.22;2.53;;;18.20;74.00;;;;;;6337456;22;20006;-79
2022/10/10 02:42:27;;;;;;;3.97;2.33;;;18.20;74.70;;;;;;6337416;22;20005;-80
2022/10/10 02:44:54;;;;;;;4.97;1.85;;;18.20;74.20;;;;;;6338395;22;20033;-79
2022/10/10 02:47:20;;;;;;;4.18;1.98;;;18.20;74.60;;;;;;6337485;22;19999;-79
2022/10/10 02:49:47;;;;;;;5.28;2.05;;;18.20;74.60;;;;;;6336655;22;20003;-80
2022/10/10 02:52:14;;;;;;;6.50;2.30;;;18.30;75.10;;;;;;6337675;22;20452;-79
2022/10/10 02:54:40;;;;;;;6.13;2.10;;;18.30;75.10;;;;;;6338651;22;20084;-81
2022/10/10 02:57:06;;;;;;;5.05;2.30;;;18.20;74.20;;;;;;6310258;22;20023;-80
2022/10/10 02:59:32;;;;;;;5.25;2.42;;;18.20;74.80;;;;;;6337403;22;20009;-80
2022/10/10 03:01:58;;;;;;;5.18;2.28;;;18.20;74.80;;;;;;6310306;22;20034;-80
2022/10/10 03:04:23;;;;;;;7.60;2.35;;;18.30;74.30;;;;;;6338568;22;20003;-79
2022/10/10 03:06:49;;;;;;;4.93;2.60;;;18.20;74.50;;;;;;6338300;22;20007;-80
2022/10/10 03:09:15;;;;;;;6.63;2.60;;;18.10;75.00;;;;;;6338205;22;20048;-80
2022/10/10 03:11:40;;;;;;;7.43;2.85;;;18.10;75.40;;;;;;6337696;22;19995;-80
2022/10/10 03:14:06;;;;;;;5.70;2.55;;;18.10;75.10;;;;;;6338726;22;19995;-79
2022/10/10 03:16:32;;;;;;;3.45;2.20;;;18.00;75.80;;;;;;6337606;22;19999;-81
2022/10/10 03:18:57;;;;;;;5.53;2.90;;;18.00;75.40;;;;;;6337941;22;20425;-80
2022/10/10 03:21:23;;;;;;;3.92;2.75;;;18.00;75.30;;;;;;6337939;22;20069;-81
2022/10/10 03:23:49;;;;;;;6.53;2.58;;;17.90;75.70;;;;;;6338144;22;20003;-81
2022/10/10 03:26:14;;;;;;;6.68;2.72;;;17.90;75.90;;;;;;6337465;22;20430;-81
2022/10/10 03:28:40;;;;;;;3.85;2.40;;;17.80;75.90;;;;;;6337823;22;20082;-81
2022/10/10 03:31:06;;;;;;;5.28;2.50;;;17.70;76.30;;;;;;6310257;22;19999;-82
2022/10/10 03:33:33;;;;;;;6.40;2.50;;;17.60;77.30;;;;;;6310909;22;20088;-81
2022/10/10 03:35:59;;;;;;;5.43;2.30;;;17.60;76.80;;;;;;6337307;22;20021;-82
2022/10/10 03:38:24;;;;;;;4.22;2.30;;;17.50;77.70;;;;;;6337606;22;20456;-82
2022/10/10 03:40:50;;;;;;;5.53;2.75;;;17.50;77.30;;;;;;6337853;22;20364;-81
2022/10/10 03:43:16;;;;;;;7.57;2.70;;;17.50;77.10;;;;;;6338437;22;20052;-81
2022/10/10 03:45:43;;;;;;;5.50;2.33;;;17.30;77.00;;;;;;6337114;22;20317;-80
2022/10/10 03:48:09;;;;;;;6.13;2.10;;;17.20;77.90;;;;;;6337148;22;20002;-79
2022/10/10 03:50:35;;;;;;;7.80;2.72;;;17.30;78.10;;;;;;6339452;22;20025;-81
2022/10/10 03:53:01;;;;;;;7.38;2.38;;;17.30;77.70;;;;;;6339443;22;20071;-82
2022/10/10 03:55:27;;;;;;;7.93;2.55;;;17.40;77.70;;;;;;6339816;22;20018;-82
2022/10/10 03:57:53;;;;;;;4.88;2.28;;;17.50;77.30;;;;;;6339578;22;20014;-82
2022/10/10 04:00:19;;;;;;;5.28;2.20;;;17.50;76.50;;;;;;6339902;22;20060;-81
2022/10/10 04:02:44;;;;;;;5.78;2.38;;;17.60;76.60;;;;;;6339305;22;19998;-81
2022/10/10 04:05:10;;;;;;;6.90;2.20;;;17.60;77.00;;;;;;6340165;22;20002;-82
2022/10/10 04:07:36;;;;;;;5.20;2.20;;;17.70;77.30;;;;;;6339908;22;20367;-81
2022/10/10 04:10:02;;;;;;;5.50;2.20;;;17.70;75.90;;;;;;6340481;22;20221;-83
2022/10/10 04:12:28;;;;;;;4.13;2.03;;;17.70;76.20;;;;;;6339348;22;20062;-82
2022/10/10 04:14:54;;;;;;;3.85;2.05;;;17.70;76.60;;;;;;6339364;22;20099;-83
2022/10/10 04:17:19;;;;;;;4.88;2.28;;;17.70;75.90;;;;;;6338921;22;20013;-81
2022/10/10 04:19:45;;;;;;;5.70;2.28;;;17.60;76.20;;;;;;6339695;22;20007;-82
2022/10/10 04:22:11;;;;;;;7.10;2.95;;;17.50;76.70;;;;;;6339419;22;19998;-81
2022/10/10 04:24:37;;;;;;;3.78;2.20;;;17.50;76.10;;;;;;6339466;22;19999;-83
2022/10/10 04:27:02;;;;;;;7.47;2.22;;;17.40;77.20;;;;;;6339508;22;20013;-82
2022/10/10 04:29:28;;;;;;;5.68;2.13;;;17.40;77.10;;;;;;6339643;22;19999;-83
2022/10/10 04:31:54;;;;;;;4.50;2.25;;;17.30;77.20;;;;;;6339436;22;19995;-81
2022/10/10 04:34:20;;;;;;;4.47;2.00;;;17.30;77.00;;;;;;6339369;22;19998;-80
2022/10/10 04:36:45;;;;;;;3.08;1.77;;;17.40;77.60;;;;;;6311654;22;19998;-80
2022/10/10 04:39:11;;;;;;;3.85;2.30;;;17.50;77.60;;;;;;6339583;22;20095;-81
2022/10/10 04:41:37;;;;;;;4.53;2.03;;;17.60;77.80;;;;;;6339075;22;20382;-81
2022/10/10 04:44:03;;;;;;;3.08;1.80;;;17.60;77.70;;;;;;6311384;22;20094;-82
2022/10/10 04:46:28;;;;;;;4.90;2.20;;;17.70;77.10;;;;;;6338881;22;20057;-80
2022/10/10 04:48:54;;;;;;;5.50;2.45;;;17.80;77.30;;;;;;6338483;22;19998;-80
2022/10/10 04:51:20;;;;;;;8.65;2.53;;;17.80;76.70;;;;;;6337470;22;20076;-80
2022/10/10 04:53:45;;;;;;;3.20;2.33;;;17.80;76.40;;;;;;6338100;22;20436;-82
2022/10/10 04:56:11;;;;;;;5.00;2.20;;;17.80;76.60;;;;;;6338074;22;20065;-82
2022/10/10 04:58:36;;;;;;;3.47;1.92;;;17.80;76.20;;;;;;6338575;22;20447;-82
2022/10/10 05:01:03;;;;;;;8.77;2.85;;;17.80;76.30;;;;;;6338522;22;20089;-82
2022/10/10 05:03:29;;;;;;;9.77;2.30;;;17.90;76.70;;;;;;6337787;22;20003;-83
2022/10/10 05:05:55;;;;;;;8.93;2.50;;;18.00;76.50;;;;;;6339386;22;20022;-81
2022/10/10 05:08:21;;;;;;;5.45;2.35;;;17.90;75.90;;;;;;6339218;22;20317;-81
2022/10/10 05:10:46;;;;;;;3.60;2.10;;;17.90;76.70;;;;;;6338612;22;20702;-81
2022/10/10 05:13:14;;;;;;;8.70;3.00;;;18.00;76.40;;;;;;6338538;22;19998;-81
2022/10/10 05:15:41;;;;;;;4.47;2.58;;;17.90;77.20;;;;;;6338640;22;20048;-81
2022/10/10 05:18:07;;;;;;;7.20;3.05;;;17.90;76.40;;;;;;6338676;22;20421;-82
2022/10/10 05:20:35;;;;;;;4.15;2.45;;;17.90;77.50;;;;;;6338364;22;20454;-81
2022/10/10 05:23:02;;;;;;;8.48;2.70;;;17.90;77.20;;;;;;6336768;22;20006;-81
2022/10/10 05:25:28;;;;;;;5.78;2.60;;;17.90;76.10;;;;;;6338245;22;19998;-82
2022/10/10 05:27:54;;;;;;;5.60;2.40;;;17.80;76.50;;;;;;6338947;22;20026;-81
2022/10/10 05:30:19;;;;;;;6.05;2.63;;;17.80;77.30;;;;;;6338510;22;20021;-80
2022/10/10 05:32:45;;;;;;;5.75;2.60;;;17.90;77.20;;;;;;6337510;22;20435;-82
2022/10/10 05:35:11;;;;;;;4.93;2.80;;;17.90;77.20;;;;;;6311897;22;20003;-83
2022/10/10 05:37:37;;;;;;;5.65;2.50;;;17.90;76.70;;;;;;6338846;22;20006;-83
2022/10/10 05:40:03;;;;;;;7.70;3.15;;;17.90;77.40;;;;;;6337053;22;20048;-83
2022/10/10 05:42:29;;;;;;;5.13;3.25;;;17.90;78.20;;;;;;6339298;22;20069;-80
2022/10/10 05:44:55;;;;;;;7.25;3.00;;;17.90;76.90;;;;;;6338195;22;20079;-79
2022/10/10 05:47:20;;;;;;;5.90;3.28;;;17.90;77.30;;;;;;6338438;22;19998;-81
2022/10/10 05:49:46;;;;;;;7.57;3.08;;;17.90;77.00;;;;;;6337559;22;20070;-80
2022/10/10 05:52:11;;;;;;;5.85;3.20;;;17.90;77.30;;;;;;6337480;22;20022;-82
2022/10/10 05:54:37;;;;;;;3.88;3.15;;;17.90;77.90;;;;;;6338152;22;19999;-82
2022/10/10 05:57:03;;;;;;;7.68;3.20;;;17.90;76.90;;;;;;6337759;22;20010;-80
2022/10/10 05:59:29;;;;;;;10.75;3.15;;;17.90;77.20;;;;;;6337743;22;20002;-82
2022/10/10 06:01:55;;;;;;;8.02;2.92;;;18.00;77.50;;;;;;6338261;22;20033;-81
2022/10/10 06:04:22;;;;;;;7.20;2.70;;;17.90;77.00;;;;;;6338550;22;20010;-84
2022/10/10 06:06:48;;;;;;;6.80;3.00;;;17.90;77.30;;;;;;6337338;22;20588;-83
2022/10/10 06:09:14;;;;;;;6.55;3.10;;;17.90;77.00;;;;;;6338722;22;20376;-85
2022/10/10 06:11:40;;;;;;;9.23;3.45;;;17.80;77.50;;;;;;6338353;22;20189;-85
2022/10/10 06:14:06;;;;;;;4.75;2.95;;;17.80;77.90;;;;;;6336065;22;20792;-84
2022/10/10 06:16:32;;;;;;;6.03;2.97;;;17.80;77.50;;;;;;6336036;22;20044;-85
2022/10/10 06:18:58;;;;;;;4.68;3.53;;;17.90;77.70;;;;;;6311129;22;20007;-84
2022/10/10 06:21:24;;;;;;;7.18;3.28;;;18.00;77.40;;;;;;6337755;22;20021;-80
2022/10/10 06:23:51;;;;;;;12.68;3.60;;;18.10;77.60;;;;;;6337515;22;20005;-82
2022/10/10 06:26:17;;;;;;;8.70;3.53;;;18.10;77.30;;;;;;6336337;22;20002;-83
2022/10/10 06:28:42;;;;;;;9.02;4.00;;;18.00;77.10;;;;;;6338521;22;20418;-82
2022/10/10 06:31:10;;;;;;;6.50;3.67;;;18.10;77.40;;;;;;6338851;22;19999;-85
2022/10/10 06:33:36;;;;;;;6.50;3.40;;;18.10;76.80;;;;;;6338760;22;20002;-86
2022/10/10 06:36:07;;;;;;;6.57;3.78;;;18.10;77.00;;;;;;6337689;22;20340;-86
2022/10/10 06:38:40;;;;;;;7.72;3.53;;;18.10;77.70;;;;;;6337937;22;20061;-86
2022/10/10 06:41:07;;;;;;;7.63;3.67;;;18.20;77.80;;;;;;6338003;22;20011;-85
2022/10/10 06:43:33;;;;;;;6.78;3.50;;;18.20;77.60;;;;;;6338636;22;20010;-86
2022/10/10 06:46:00;;;;;;;9.82;4.03;;;18.20;77.60;;;;;;6310287;22;20018;-86
2022/10/10 06:48:26;;;;;;;9.73;4.63;;;18.30;77.30;;;;;;6337711;22;20010;-85
2022/10/10 06:50:56;;;;;;;16.70;4.10;;;18.30;77.70;;;;;;6338325;22;20482;-86
2022/10/10 06:53:22;;;;;;;6.40;4.25;;;18.30;76.70;;;;;;6337045;22;20030;-85
2022/10/10 06:55:48;;;;;;;7.68;3.90;;;18.30;77.10;;;;;;6337341;22;20055;-86
2022/10/10 06:58:14;;;;;;;8.82;4.00;;;18.40;77.70;;;;;;6310855;22;20089;-84
2022/10/10 07:00:40;;;;;;;10.88;3.95;;;18.40;76.70;;;;;;6310265;22;20003;-83
2022/10/10 07:03:05;;;;;;;7.47;4.00;;;18.40;76.50;;;;;;6338878;22;20009;-86
2022/10/10 07:05:34;;;;;;;7.50;4.50;;;18.40;76.60;;;;;;6337082;22;20026;-79
2022/10/10 07:08:00;;;;;;;10.52;3.83;;;18.40;77.00;;;;;;6309930;22;20405;-87
2022/10/10 07:10:26;;;;;;;10.88;3.72;;;18.40;77.40;;;;;;6338239;22;20052;-85
2022/10/10 07:12:51;;;;;;;6.65;3.83;;;18.40;77.00;;;;;;6338399;22;20003;-84
2022/10/10 07:15:17;;;;;;;6.38;3.95;;;18.50;77.50;;;;;;6338204;22;20436;-85
2022/10/10 07:17:43;;;;;;;11.52;3.90;;;18.50;77.20;;;;;;6327182;22;20003;-86
2022/10/10 07:20:09;;;;;;;7.38;3.72;;;18.50;76.40;;;;;;6333960;22;19999;-82
2022/10/10 07:22:34;;;;;;;11.43;4.72;;;18.50;77.50;;;;;;6332600;22;20006;-85
2022/10/10 07:25:00;;;;;;;6.43;3.95;;;18.50;76.50;;;;;;6332769;22;20009;-86
2022/10/10 07:27:26;;;;;;;7.75;3.95;;;18.50;76.50;;;;;;6335706;22;20009;-85
2022/10/10 07:29:51;;;;;;;7.10;4.03;;;18.50;76.60;;;;;;6334243;22;20006;-85
2022/10/10 07:32:17;;;;;;;5.80;3.65;;;18.60;76.30;;;;;;6334143;22;20005;-84
2022/10/10 07:34:43;;;;;;;9.18;3.55;;;18.60;77.10;;;;;;6335465;22;20375;-84
2022/10/10 07:37:08;;;;;;;7.65;4.50;;;18.70;77.70;;;;;;6336054;22;20480;-86
2022/10/10 07:39:34;;;;;;;14.77;4.47;;;18.70;76.60;;;;;;6335371;22;20429;-85
2022/10/10 07:42:00;;;;;;;9.13;3.22;;;18.80;76.20;;;;;;6337605;22;20003;-84
2022/10/10 07:44:25;;;;;;;8.40;3.85;;;18.80;77.80;;;;;;6334749;22;20007;-84
2022/10/10 07:46:51;;;;;;;8.35;3.47;;;18.80;76.10;;;;;;6336867;22;20429;-83
2022/10/10 07:49:17;;;;;;;6.93;3.60;;;18.80;75.90;;;;;;6337164;22;20079;-82
2022/10/10 07:51:42;;;;;;;8.02;3.72;;;18.80;75.90;;;;;;6337838;22;19999;-86
2022/10/10 07:54:09;;;;;;;7.82;3.67;;;18.70;76.30;;;;;;6337705;22;20057;-86
2022/10/10 07:56:35;;;;;;;6.22;3.80;;;18.70;76.20;;;;;;6336034;22;20341;-83
2022/10/10 07:59:01;;;;;;;14.27;4.03;;;18.60;75.60;;;;;;6337332;22;20037;-84
2022/10/10 08:01:27;;;;;;;7.55;4.20;;;18.70;76.40;;;;;;6337033;22;19998;-84
2022/10/10 08:03:55;;;;;;;7.32;3.90;;;18.50;76.10;;;;;;6337988;22;20410;-84
2022/10/10 08:06:20;;;;;;;6.20;3.97;;;18.50;76.20;;;;;;6336928;22;20022;-84
2022/10/10 08:08:48;;;;;;;10.02;3.92;;;18.50;76.10;;;;;;6337612;22;20061;-84
2022/10/10 08:11:14;;;;;;;5.93;3.58;;;18.50;77.00;;;;;;6337183;22;20326;-84
2022/10/10 08:13:41;;;;;;;6.85;3.53;;;18.50;77.60;;;;;;6338331;22;20002;-85
2022/10/10 08:16:07;;;;;;;6.25;3.80;;;18.60;76.60;;;;;;6337384;22;20074;-85
2022/10/10 08:18:33;;;;;;;6.43;4.30;;;18.50;76.40;;;;;;6309215;22;20489;-84
2022/10/10 08:20:59;;;;;;;6.95;3.20;;;18.40;76.30;;;;;;6309698;22;20090;-84
2022/10/10 08:23:25;;;;;;;6.20;3.67;;;18.40;76.90;;;;;;6337107;22;20002;-85
2022/10/10 08:25:51;;;;;;;5.07;3.38;;;18.50;76.60;;;;;;6338132;22;19999;-86
2022/10/10 08:28:16;;;;;;;8.15;3.65;;;18.60;76.90;;;;;;6336741;22;20482;-85
2022/10/10 08:30:42;;;;;;;11.20;3.63;;;18.70;77.10;;;;;;6337361;22;20398;-85
2022/10/10 08:33:08;;;;;;;10.98;3.55;;;18.70;76.30;;;;;;6336515;22;19995;-85
2022/10/10 08:35:38;;;;;;;9.52;4.05;;;18.90;77.20;;;;;;6336761;22;19995;-84
2022/10/10 08:38:04;;;;;;;6.35;3.65;;;19.00;75.90;;;;;;6336366;22;20007;-82
2022/10/10 08:40:30;;;;;;;10.75;3.60;;;19.00;76.00;;;;;;6338830;22;20006;-82
2022/10/10 08:43:02;;;;;;;10.68;3.75;;;19.10;75.40;;;;;;6338539;22;19999;-83
2022/10/10 08:45:29;;;;;;;7.10;3.95;;;19.10;75.50;;;;;;6336006;22;20310;-83
2022/10/10 08:48:03;;;;;;;9.43;3.25;;;19.20;74.70;;;;;;6336818;22;20007;-82
2022/10/10 08:50:38;;;;;;;8.75;3.65;;;19.10;74.90;;;;;;6335789;22;19998;-83
2022/10/10 08:53:19;;;;;;;12.15;4.10;;;19.10;74.80;;;;;;6310769;22;20034;-84
2022/10/10 08:55:45;;;;;;;6.32;3.25;;;19.10;74.70;;;;;;6339094;22;20074;-83
2022/10/10 08:58:11;;;;;;;7.90;2.97;;;19.10;74.70;;;;;;6335502;22;19999;-82
2022/10/10 09:00:43;;;;;;;6.95;3.58;;;19.20;75.20;;;;;;6309229;22;20391;-84
2022/10/10 09:03:49;;;;;;;6.30;3.05;;;19.30;74.90;;;;;;6339427;22;20368;-84
2022/10/10 09:06:39;;;;;;;4.95;3.10;;;19.50;74.90;;;;;;6328641;22;20007;-85
2022/10/10 09:09:07;;;;;;;4.25;3.05;;;19.60;74.90;;;;;;6310731;22;20452;-84
2022/10/10 09:11:46;;;;;;;5.93;3.00;;;19.80;74.60;;;;;;6338567;22;20441;-84
2022/10/10 09:14:43;;;;;;;6.82;3.55;;;19.90;72.60;;;;;;6338274;22;20417;-84
2022/10/10 09:17:29;;;;;;;6.47;4.03;;;19.90;71.40;;;;;;6338841;22;20078;-86
2022/10/10 09:19:57;;;;;;;8.52;3.22;;;20.00;71.60;;;;;;6336804;22;19999;-83
2022/10/10 09:22:29;;;;;;;7.03;3.45;;;20.10;72.80;;;;;;6337551;22;20126;-86
2022/10/10 09:25:02;;;;;;;5.75;3.25;;;20.10;71.20;;;;;;6337901;22;20070;-78
2022/10/10 09:27:34;;;;;;;5.75;2.75;;;20.20;71.20;;;;;;6337837;22;20329;-84
2022/10/10 09:30:16;;;;;;;4.93;2.90;;;20.20;71.60;;;;;;6337146;22;20003;-82
2022/10/10 09:33:22;;;;;;;3.78;2.58;;;20.30;72.10;;;;;;6311146;22;20007;-81
2022/10/10 09:35:50;;;;;;;8.60;3.33;;;20.40;73.20;;;;;;6314656;22;19999;-81
2022/10/10 09:38:25;;;;;;;5.00;2.92;;;20.50;71.80;;;;;;6337323;22;20036;-82
2022/10/10 09:41:02;;;;;;;7.20;3.33;;;20.70;72.40;;;;;;6338289;22;20007;-82
2022/10/10 09:43:31;;;;;;;6.22;3.13;;;20.90;71.10;;;;;;6339254;22;19999;-82
2022/10/10 09:45:57;;;;;;;4.00;2.50;;;21.10;71.00;;;;;;6338957;22;20007;-81
2022/10/10 09:48:44;;;;;;;8.65;3.42;;;21.40;71.10;;;;;;6338569;22;20085;-81
2022/10/10 09:51:16;;;;;;;5.15;2.85;;;21.60;67.90;;;;;;6312189;22;20332;-82
2022/10/10 09:53:42;;;;;;;8.10;3.00;;;21.80;69.00;;;;;;6338965;22;20516;-81
2022/10/10 09:56:18;;;;;;;7.30;3.20;;;22.10;69.00;;;;;;6310622;22;20379;-82
2022/10/10 09:58:49;;;;;;;6.80;2.75;;;22.50;67.80;;;;;;6338262;22;20093;-82
2022/10/10 10:01:32;;;;;;;7.30;2.97;;;22.50;66.60;;;;;;6339412;22;20023;-82
2022/10/10 10:04:19;;;;;;;9.25;2.88;;;22.70;66.30;;;;;;6339040;22;20037;-82
2022/10/10 10:06:48;;;;;;;3.80;2.65;;;22.90;66.60;;;;;;6338893;22;20364;-82
2022/10/10 10:09:20;;;;;;;10.38;2.97;;;23.00;65.90;;;;;;6338525;22;19999;-83
2022/10/10 10:11:52;;;;;;;6.05;2.75;;;23.10;65.00;;;;;;6339213;22;19995;-82
2022/10/10 10:14:38;;;;;;;6.15;3.40;;;23.20;65.10;;;;;;6339145;22;20436;-83
2022/10/10 10:17:14;;;;;;;9.18;3.17;;;23.20;64.10;;;;;;6338870;22;20073;-83
2022/10/10 10:19:43;;;;;;;5.53;2.83;;;23.30;64.40;;;;;;6338421;22;20020;-83
2022/10/10 10:22:38;;;;;;;8.13;2.90;;;23.30;64.40;;;;;;6339182;22;20307;-82
2022/10/10 10:25:27;;;;;;;9.85;3.78;;;23.50;65.40;;;;;;6337245;22;20095;-81
2022/10/10 10:28:10;;;;;;;4.38;2.33;;;23.60;63.10;;;;;;6338748;22;20028;-81
2022/10/10 10:30:38;;;;;;;7.28;2.40;;;23.70;64.20;;;;;;6338295;22;20291;-80
2022/10/10 10:33:32;;;;;;;8.15;3.00;;;23.80;63.90;;;;;;6338558;22;20433;-81
2022/10/10 10:36:09;;;;;;;5.88;2.72;;;23.70;63.20;;;;;;6311300;22;20363;-80
2022/10/10 10:38:37;;;;;;;5.32;2.67;;;23.80;64.10;;;;;;6339040;22;20484;-80
2022/10/10 10:41:37;;;;;;;5.50;3.08;;;24.10;63.60;;;;;;6338384;22;20055;-80
2022/10/10 10:44:33;;;;;;;6.07;2.87;;;24.30;62.90;;;;;;6334254;22;20002;-81
2022/10/10 10:47:09;;;;;;;7.10;3.80;;;24.20;61.30;;;;;;6310354;22;20010;-79
2022/10/10 10:49:40;;;;;;;5.35;2.90;;;24.20;62.10;;;;;;6310367;22;19999;-81
2022/10/10 10:52:22;;;;;;;5.57;2.95;;;24.30;62.60;;;;;;6338176;22;20073;-80
2022/10/10 10:55:07;;;;;;;9.20;3.30;;;24.40;62.30;;;;;;6337940;22;20002;-81
2022/10/10 10:57:53;;;;;;;7.00;3.20;;;24.40;61.80;;;;;;6338381;22;20017;-83
2022/10/10 11:00:19;;;;;;;6.22;3.50;;;24.70;62.60;;;;;;6338371;22;20036;-82
2022/10/10 11:03:08;;;;;;;7.82;3.08;;;24.60;61.00;;;;;;6338102;22;20006;-80
2022/10/10 11:05:42;;;;;;;6.35;3.05;;;24.70;61.70;;;;;;6310338;22;20313;-82
2022/10/10 11:08:16;;;;;;;2.97;2.20;;;25.00;61.60;;;;;;6338301;22;20007;-81
2022/10/10 11:10:54;;;;;;;7.38;3.33;;;25.30;62.00;;;;;;6338705;22;19999;-81
2022/10/10 11:13:19;;;;;;;7.57;3.10;;;25.40;60.50;;;;;;6337874;22;20120;-81
2022/10/10 11:16:02;;;;;;;6.78;3.03;;;25.50;58.40;;;;;;6337893;22;20030;-82
2022/10/10 11:18:43;;;;;;;5.68;2.88;;;25.50;58.00;;;;;;6337027;22;19999;-81
2022/10/10 11:21:23;;;;;;;6.85;2.70;;;25.40;58.50;;;;;;6309303;22;20080;-80
2022/10/10 11:23:56;;;;;;;7.00;3.13;;;25.50;59.10;;;;;;6336897;22;20003;-80
2022/10/10 11:26:30;;;;;;;3.40;2.42;;;25.50;59.40;;;;;;6337285;22;19999;-80
2022/10/10 11:29:01;;;;;;;5.35;2.90;;;25.60;59.50;;;;;;6330956;22;20007;-80
2022/10/10 11:31:48;;;;;;;5.13;3.10;;;25.50;59.10;;;;;;6336878;22;20025;-81
2022/10/10 11:34:21;;;;;;;4.55;2.90;;;25.60;58.40;;;;;;6337235;22;20036;-81
2022/10/10 11:36:50;;;;;;;7.97;3.40;;;25.70;56.90;;;;;;6336788;22;20002;-81
2022/10/10 11:39:23;;;;;;;7.13;3.30;;;25.80;57.90;;;;;;6336508;22;20462;-81
2022/10/10 11:41:55;;;;;;;6.68;3.33;;;25.90;58.50;;;;;;6337169;22;20101;-83
2022/10/10 11:44:30;;;;;;;7.47;3.25;;;25.80;56.50;;;;;;6337084;22;20003;-82
2022/10/10 11:47:12;;;;;;;7.15;3.40;;;25.90;55.50;;;;;;6336826;22;20026;-82
2022/10/10 11:49:54;;;;;;;10.70;3.35;;;26.40;56.50;;;;;;6336822;22;19995;-80
2022/10/10 11:52:38;;;;;;;4.15;2.90;;;27.00;55.40;;;;;;6337032;22;19995;-80
2022/10/10 11:55:23;;;;;;;4.70;3.47;;;27.90;54.40;;;;;;6336768;22;20055;-81
2022/10/10 11:57:54;;;;;;;8.48;4.00;;;28.00;51.70;;;;;;6336506;22;20429;-80
2022/10/10 12:00:21;;;;;;;6.15;3.47;;;28.00;51.50;;;;;;6336561;22;20448;-80
2022/10/10 12:02:48;;;;;;;4.88;3.03;;;28.30;51.80;;;;;;6337382;22;19995;-79
2022/10/10 12:05:29;;;;;;;9.60;3.50;;;28.80;50.10;;;;;;6310611;22;20418;-79
2022/10/10 12:08:05;;;;;;;10.25;3.72;;;27.60;50.90;;;;;;6310544;22;20089;-80
2022/10/10 12:10:41;;;;;;;9.10;3.65;;;27.50;51.90;;;;;;6310612;22;20007;-82
2022/10/10 12:13:22;;;;;;;8.68;3.83;;;28.00;51.90;;;;;;6340392;22;20015;-80
2022/10/10 12:15:51;;;;;;;6.43;3.35;;;27.70;50.10;;;;;;6339731;22;20066;-82
2022/10/10 12:18:30;;;;;;;8.00;3.72;;;27.80;51.90;;;;;;6339685;22;20113;-82
2022/10/10 12:21:24;;;;;;;6.32;3.15;;;28.50;51.20;;;;;;6339615;22;20324;-82
2022/10/10 12:24:03;;;;;;;6.10;3.00;;;28.90;49.60;;;;;;6339068;22;20003;-82
2022/10/10 12:26:51;;;;;;;8.93;3.58;;;29.30;49.50;;;;;;6340730;22;19999;-82
2022/10/10 12:30:02;;;;;;;7.38;3.28;;;29.60;49.00;;;;;;6339604;22;20013;-82
2022/10/10 12:32:41;;;;;;;4.68;3.45;;;29.60;47.70;;;;;;6335728;22;20003;-82
2022/10/10 12:35:33;;;;;;;6.30;3.22;;;29.40;48.90;;;;;;6339867;22;20003;-81
2022/10/10 12:38:06;;;;;;;10.38;3.90;;;29.20;48.10;;;;;;6339317;22;20002;-81
2022/10/10 12:40:32;;;;;;;8.68;3.67;;;28.70;49.60;;;;;;6339115;22;20018;-82
2022/10/10 12:43:01;;;;;;;5.03;3.22;;;28.80;50.30;;;;;;6339659;22;19995;-82
2022/10/10 12:45:32;;;;;;;9.25;3.50;;;28.60;49.30;;;;;;6339292;22;20013;-81
2022/10/10 12:48:17;;;;;;;8.48;3.40;;;28.00;50.30;;;;;;6339157;22;20006;-81
2022/10/10 12:50:52;;;;;;;10.20;4.05;;;27.60;51.50;;;;;;6339479;22;20002;-81
2022/10/10 12:53:19;;;;;;;5.57;3.25;;;27.40;52.20;;;;;;6339757;22;20332;-81
2022/10/10 12:55:47;;;;;;;4.55;3.10;;;27.10;52.50;;;;;;6339268;22;20497;-81
2022/10/10 12:58:23;;;;;;;7.05;2.95;;;26.90;52.80;;;;;;6339662;22;20003;-81
2022/10/10 13:00:50;;;;;;;5.10;3.08;;;26.70;52.10;;;;;;6339353;22;20003;-82
2022/10/10 13:03:42;;;;;;;5.13;2.72;;;26.60;52.90;;;;;;6338653;22;20010;-81
2022/10/10 13:06:31;;;;;;;7.43;3.30;;;26.50;53.10;;;;;;6338223;22;20013;-82